KBVY/BVY METAR and TAF weather

Enter ICAO airport designator
Station Type Date Time Source
KBVY METAR 2022/06/26 07:53 UTC NOAA

KBVY 260753Z AUTO 00000KT 10SM SCT110 19/16 A3008 RMK AO2 SLP179 T01940161


Station Type Date Time Source
KBVY Decoded METAR 2022/06/26 07:53 UTC NOAA

BEVERLY MUNICIPAL AIRPORT, MA, United States (KBVY) 42-35N 070-55W 28M
Jun 26, 2022 - 03:53 AM EDT / 2022.06.26 0753 UTC
Wind: Calm:0
Visibility: 10 mile(s):0
Sky conditions: partly cloudy
Temperature: 66.9 F (19.4 C)
Dew Point: 61.0 F (16.1 C)
Relative Humidity: 81%
Pressure (altimeter): 30.08 in. Hg (1018 hPa)
ob: KBVY 260753Z AUTO 00000KT 10SM SCT110 19/16 A3008 RMK AO2 SLP179 T01940161
cycle: 8

Station Type Date Time Source
KBVY TAF UTC NOAA

Error!

Example: see airport list